createdAt,value
2023-04-01T00:00:36.370Z,1443.00
2023-04-01T00:01:36.362Z,1442.00
2023-04-01T00:02:36.415Z,1446.00
2023-04-01T00:03:36.552Z,1446.00
2023-04-01T00:04:36.428Z,1445.00
2023-04-01T00:05:36.385Z,1442.00
2023-04-01T00:06:36.412Z,1431.00
2023-04-01T00:07:36.427Z,1429.00
2023-04-01T00:08:36.442Z,1427.00
2023-04-01T00:09:36.463Z,1425.00
2023-04-01T00:10:36.479Z,1423.00
2023-04-01T00:11:36.478Z,1424.00
2023-04-01T00:12:36.501Z,1417.00
2023-04-01T00:13:36.512Z,1413.00
2023-04-01T00:14:36.539Z,1414.00
2023-04-01T00:15:36.535Z,1415.00
2023-04-01T00:16:36.563Z,1415.00
2023-04-01T00:17:36.576Z,1413.00
2023-04-01T00:18:36.583Z,1414.00
2023-04-01T00:19:36.639Z,1412.00
2023-04-01T00:20:36.571Z,1414.00
2023-04-01T00:21:36.596Z,1415.00
2023-04-01T00:22:36.615Z,1415.00
2023-04-01T00:23:36.610Z,1415.00
2023-04-01T00:24:36.634Z,1413.00
2023-04-01T00:25:36.632Z,1410.00
2023-04-01T00:26:36.670Z,1408.00
2023-04-01T00:27:36.690Z,1411.00
2023-04-01T00:28:36.698Z,1413.00
2023-04-01T00:29:36.724Z,1415.00
2023-04-01T00:30:36.726Z,1415.00
2023-04-01T00:31:36.877Z,1414.00
2023-04-01T00:32:36.843Z,1411.00
2023-04-01T00:33:36.808Z,1411.00
2023-04-01T00:34:36.785Z,1413.00
2023-04-01T00:35:36.802Z,1410.00
2023-04-01T00:36:36.846Z,1410.00
2023-04-01T00:37:36.847Z,1412.00
2023-04-01T00:38:36.860Z,1408.00
2023-04-01T00:39:36.874Z,1404.00
2023-04-01T00:40:36.937Z,1407.00
2023-04-01T00:41:36.922Z,1402.00
2023-04-01T00:42:36.948Z,1399.00
2023-04-01T00:43:36.972Z,1399.00
2023-04-01T00:44:36.990Z,1398.00
2023-04-01T00:45:37.068Z,1403.00
2023-04-01T00:46:38.061Z,1401.00
2023-04-01T00:47:37.021Z,1400.00
2023-04-01T00:48:36.964Z,1404.00
2023-04-01T00:49:36.962Z,1405.00
2023-04-01T00:50:36.940Z,1401.00
2023-04-01T00:51:36.929Z,1393.00
2023-04-01T00:52:36.907Z,1398.00
2023-04-01T00:53:36.892Z,1394.00
2023-04-01T00:54:36.886Z,1398.00
2023-04-01T00:55:36.874Z,1394.00
2023-04-01T00:56:36.899Z,1392.00
2023-04-01T00:57:36.858Z,1386.00
2023-04-01T00:58:36.854Z,1386.00
2023-04-01T00:59:36.866Z,1386.00
2023-04-01T01:00:36.873Z,1387.00
2023-04-01T01:01:36.836Z,1386.00
2023-04-01T01:02:36.948Z,1384.00
2023-04-01T01:03:36.830Z,1383.00
2023-04-01T01:04:36.884Z,1379.00
2023-04-01T01:05:48.104Z,1378.00
2023-04-01T01:06:37.819Z,1379.00
2023-04-01T01:07:36.807Z,1372.00
2023-04-01T01:08:36.804Z,1369.00
2023-04-01T01:09:36.857Z,1365.00
2023-04-01T01:10:36.794Z,1367.00
2023-04-01T01:11:42.612Z,1364.00
2023-04-01T01:12:37.781Z,1367.00
2023-04-01T01:13:36.774Z,1370.00
2023-04-01T01:14:36.781Z,1371.00
2023-04-01T01:15:36.760Z,1374.00
2023-04-01T01:16:36.822Z,1369.00
2023-04-01T01:17:36.764Z,1368.00
2023-04-01T01:18:36.742Z,1361.00
2023-04-01T01:19:36.745Z,1358.00
2023-04-01T01:20:36.741Z,1363.00
2023-04-01T01:21:36.734Z,1362.00
2023-04-01T01:22:36.763Z,1357.00
2023-04-01T01:23:36.706Z,1364.00
2023-04-01T01:24:36.701Z,1361.00
2023-04-01T01:25:36.699Z,1360.00
2023-04-01T01:26:36.689Z,1357.00
2023-04-01T01:27:36.682Z,1368.00
2023-04-01T01:28:36.680Z,1364.00
2023-04-01T01:29:36.664Z,1357.00
2023-04-01T01:30:36.695Z,1362.00
2023-04-01T01:31:36.642Z,1358.00
2023-04-01T01:32:36.675Z,1358.00
2023-04-01T01:33:36.648Z,1356.00
2023-04-01T01:34:36.684Z,1352.00
2023-04-01T01:35:36.690Z,1354.00
2023-04-01T01:36:36.722Z,1350.00
2023-04-01T01:37:36.740Z,1349.00
2023-04-01T01:38:36.761Z,1351.00
2023-04-01T01:39:36.794Z,1358.00
2023-04-01T01:40:36.828Z,1362.00
2023-04-01T01:41:36.830Z,1359.00
2023-04-01T01:42:36.864Z,1356.00
2023-04-01T01:43:36.878Z,1355.00
2023-04-01T01:44:36.899Z,1355.00
2023-04-01T01:45:36.928Z,1352.00
2023-04-01T01:46:37.026Z,1354.00
2023-04-01T01:47:36.985Z,1351.00
2023-04-01T01:48:36.969Z,1349.00
2023-04-01T01:49:37.080Z,1347.00
2023-04-01T01:50:37.000Z,1348.00
2023-04-01T01:51:37.009Z,1347.00
2023-04-01T01:52:37.019Z,1349.00
2023-04-01T01:53:37.040Z,1349.00
2023-04-01T01:54:37.067Z,1346.00
2023-04-01T01:55:37.086Z,1340.00
2023-04-01T01:56:37.107Z,1342.00
2023-04-01T01:57:37.121Z,1344.00
2023-04-01T01:58:37.155Z,1338.00
2023-04-01T01:59:37.172Z,1340.00
2023-04-01T02:00:37.186Z,1341.00
2023-04-01T02:01:37.288Z,1340.00
2023-04-01T02:02:37.300Z,1345.00
2023-04-01T02:03:37.290Z,1345.00
2023-04-01T02:04:37.386Z,1342.00
2023-04-01T02:05:37.344Z,1333.00
2023-04-01T02:06:37.361Z,1341.00
2023-04-01T02:07:37.393Z,1338.00
2023-04-01T02:08:37.410Z,1339.00
2023-04-01T02:09:37.425Z,1335.00
2023-04-01T02:10:37.457Z,1329.00
2023-04-01T02:11:37.494Z,1328.00
2023-04-01T02:12:37.509Z,1330.00
2023-04-01T02:13:37.522Z,1332.00
2023-04-01T02:14:37.553Z,1336.00
2023-04-01T02:15:37.589Z,1334.00
2023-04-01T02:16:37.584Z,1327.00
2023-04-01T02:17:37.640Z,1325.00
2023-04-01T02:18:37.628Z,1329.00
2023-04-01T02:19:37.651Z,1329.00
2023-04-01T02:20:37.672Z,1331.00
2023-04-01T02:21:37.691Z,1332.00
2023-04-01T02:22:37.790Z,1330.00
2023-04-01T02:23:37.719Z,1329.00
2023-04-01T02:24:37.743Z,1327.00
2023-04-01T02:25:37.776Z,1332.00
2023-04-01T02:26:37.806Z,1329.00
2023-04-01T02:27:37.808Z,1326.00
2023-04-01T02:28:37.852Z,1325.00
2023-04-01T02:29:37.865Z,1325.00
2023-04-01T02:30:37.881Z,1328.00
2023-04-01T02:31:37.991Z,1327.00
2023-04-01T02:32:37.998Z,1324.00
2023-04-01T02:33:37.953Z,1321.00
2023-04-01T02:34:37.975Z,1318.00
2023-04-01T02:35:37.990Z,1320.00
2023-04-01T02:36:38.004Z,1323.00
2023-04-01T02:37:40.317Z,1321.00
2023-04-01T02:38:38.079Z,1317.00
2023-04-01T02:39:38.115Z,1318.00
2023-04-01T02:40:38.117Z,1320.00
2023-04-01T02:41:38.169Z,1321.00
2023-04-01T02:42:38.186Z,1321.00
2023-04-01T02:43:38.189Z,1321.00
2023-04-01T02:44:38.226Z,1317.00
2023-04-01T02:45:38.243Z,1315.00
2023-04-01T02:46:38.332Z,1317.00
2023-04-01T02:47:38.375Z,1319.00
2023-04-01T02:48:38.347Z,1317.00
2023-04-01T02:49:38.366Z,1317.00
2023-04-01T02:50:38.422Z,1319.00
2023-04-01T02:51:38.420Z,1315.00
2023-04-01T02:52:38.438Z,1313.00
2023-04-01T02:53:38.454Z,1311.00
2023-04-01T02:54:38.494Z,1308.00
2023-04-01T02:55:38.515Z,1309.00
2023-04-01T02:56:38.536Z,1307.00
2023-04-01T02:57:38.558Z,1311.00
2023-04-01T02:58:38.591Z,1312.00
2023-04-01T02:59:38.619Z,1309.00
2023-04-01T03:00:38.638Z,1307.00
2023-04-01T03:01:40.487Z,1304.00
2023-04-01T03:02:38.784Z,1301.00
2023-04-01T03:03:38.731Z,1303.00
2023-04-01T03:04:38.739Z,1305.00
2023-04-01T03:05:38.785Z,1304.00
2023-04-01T03:06:38.807Z,1308.00
2023-04-01T03:07:38.843Z,1306.00
2023-04-01T03:08:38.885Z,1306.00
2023-04-01T03:09:38.886Z,1304.00
2023-04-01T03:10:38.909Z,1301.00
2023-04-01T03:11:38.920Z,1301.00
2023-04-01T03:12:38.944Z,1298.00
2023-04-01T03:13:38.956Z,1299.00
2023-04-01T03:14:39.006Z,1297.00
2023-04-01T03:15:39.008Z,1291.00
2023-04-01T03:16:39.055Z,1291.00
2023-04-01T03:17:39.112Z,1288.00
2023-04-01T03:18:39.103Z,1291.00
2023-04-01T03:19:39.139Z,1288.00
2023-04-01T03:20:39.158Z,1289.00
2023-04-01T03:21:39.185Z,1291.00
2023-04-01T03:22:41.394Z,1290.00
2023-04-01T03:23:39.249Z,1291.00
2023-04-01T03:24:39.202Z,1294.00
2023-04-01T03:25:39.178Z,1295.00
2023-04-01T03:26:39.168Z,1288.00
2023-04-01T03:27:39.164Z,1288.00
2023-04-01T03:28:39.143Z,1289.00
2023-04-01T03:29:39.164Z,1290.00
2023-04-01T03:30:39.170Z,1288.00
2023-04-01T03:31:39.106Z,1289.00
2023-04-01T03:32:39.136Z,1289.00
2023-04-01T03:33:39.093Z,1289.00
2023-04-01T03:34:39.454Z,1292.00
2023-04-01T03:35:39.067Z,1290.00
2023-04-01T03:36:39.054Z,1288.00
2023-04-01T03:37:39.026Z,1286.00
2023-04-01T03:38:39.013Z,1284.00
2023-04-01T03:39:39.002Z,1286.00
2023-04-01T03:40:38.979Z,1284.00
2023-04-01T03:41:38.958Z,1286.00
2023-04-01T03:42:38.986Z,1283.00
2023-04-01T03:43:38.905Z,1281.00
2023-04-01T03:44:38.878Z,1280.00
2023-04-01T03:45:38.863Z,1272.00
2023-04-01T03:46:38.953Z,1273.00
2023-04-01T03:47:38.858Z,1273.00
2023-04-01T03:48:38.794Z,1275.00
2023-04-01T03:49:38.799Z,1274.00
2023-04-01T03:50:38.762Z,1273.00
2023-04-01T03:51:38.739Z,1274.00
2023-04-01T03:52:38.713Z,1275.00
2023-04-01T03:53:38.683Z,1275.00
2023-04-01T03:54:38.697Z,1278.00
2023-04-01T03:55:38.653Z,1281.00
2023-04-01T03:56:38.643Z,1278.00
2023-04-01T03:57:38.627Z,1274.00
2023-04-01T03:58:38.605Z,1268.00
2023-04-01T03:59:38.579Z,1266.00
2023-04-01T04:00:38.589Z,1263.00
2023-04-01T04:01:38.545Z,1267.00
2023-04-01T04:02:38.593Z,1267.00
2023-04-01T04:03:38.703Z,1266.00
2023-04-01T04:04:38.543Z,1270.00
2023-04-01T04:05:38.573Z,1268.00
2023-04-01T04:06:38.595Z,1267.00
2023-04-01T04:07:38.633Z,1266.00
2023-04-01T04:08:38.664Z,1266.00
2023-04-01T04:09:38.719Z,1268.00
2023-04-01T04:10:38.749Z,1272.00
2023-04-01T04:11:38.792Z,1272.00
2023-04-01T04:12:38.819Z,1267.00
2023-04-01T04:13:38.877Z,1267.00
2023-04-01T04:14:38.908Z,1267.00
2023-04-01T04:15:38.932Z,1259.00
2023-04-01T04:16:38.966Z,1255.00
2023-04-01T04:17:39.077Z,1261.00
2023-04-01T04:18:39.049Z,1263.00
2023-04-01T04:19:39.075Z,1263.00
2023-04-01T04:20:39.105Z,1261.00
2023-04-01T04:21:39.149Z,1254.00
2023-04-01T04:22:39.214Z,1254.00
2023-04-01T04:23:39.222Z,1255.00
2023-04-01T04:24:39.261Z,1256.00
2023-04-01T04:25:39.283Z,1257.00
2023-04-01T04:26:39.319Z,1252.00
2023-04-01T04:27:39.356Z,1252.00
2023-04-01T04:28:39.408Z,1253.00
2023-04-01T04:29:39.425Z,1252.00
2023-04-01T04:30:39.452Z,1249.00
2023-04-01T04:31:39.540Z,1248.00
2023-04-01T04:32:39.589Z,1245.00
2023-04-01T04:33:39.575Z,1246.00
2023-04-01T04:34:39.617Z,1246.00
2023-04-01T04:35:39.662Z,1245.00
2023-04-01T04:36:39.674Z,1242.00
2023-04-01T04:37:39.698Z,1243.00
2023-04-01T04:38:39.744Z,1242.00
2023-04-01T04:39:39.782Z,1241.00
2023-04-01T04:40:39.824Z,1238.00
2023-04-01T04:41:39.857Z,1239.00
2023-04-01T04:42:39.878Z,1237.00
2023-04-01T04:43:39.911Z,1234.00
2023-04-01T04:44:39.935Z,1232.00
2023-04-01T04:45:39.962Z,1235.00
2023-04-01T04:46:40.045Z,1237.00
2023-04-01T04:47:40.133Z,1240.00
2023-04-01T04:48:40.072Z,1241.00
2023-04-01T04:49:40.112Z,1239.00
2023-04-01T04:50:40.139Z,1242.00
2023-04-01T04:51:40.185Z,1242.00
2023-04-01T04:52:40.227Z,1242.00
2023-04-01T04:53:40.296Z,1241.00
2023-04-01T04:54:40.290Z,1240.00
2023-04-01T04:55:40.325Z,1237.00
2023-04-01T04:56:40.356Z,1237.00
2023-04-01T04:57:40.400Z,1237.00
2023-04-01T04:58:40.496Z,1240.00
2023-04-01T04:59:40.479Z,1241.00
2023-04-01T05:00:40.507Z,1238.00
2023-04-01T05:01:40.594Z,1239.00
2023-04-01T05:02:40.940Z,1235.00
2023-04-01T05:03:40.642Z,1233.00
2023-04-01T05:04:40.653Z,1232.00
2023-04-01T05:05:40.692Z,1232.00
2023-04-01T05:06:40.711Z,1235.00
2023-04-01T05:07:40.751Z,1236.00
2023-04-01T05:08:40.769Z,1234.00
2023-04-01T05:09:40.826Z,1233.00
2023-04-01T05:10:40.850Z,1234.00
2023-04-01T05:11:40.894Z,1234.00
2023-04-01T05:12:40.923Z,1232.00
2023-04-01T05:13:40.965Z,1234.00
2023-04-01T05:14:41.001Z,1235.00
2023-04-01T05:15:42.032Z,1233.00
2023-04-01T05:16:41.137Z,1234.00
2023-04-01T05:17:41.258Z,1229.00
2023-04-01T05:18:41.162Z,1231.00
2023-04-01T05:19:41.212Z,1229.00
2023-04-01T05:20:41.233Z,1230.00
2023-04-01T05:21:41.274Z,1230.00
2023-04-01T05:22:41.334Z,1230.00
2023-04-01T05:23:41.360Z,1230.00
2023-04-01T05:24:41.405Z,1234.00
2023-04-01T05:25:41.428Z,1235.00
2023-04-01T05:26:41.454Z,1231.00
2023-04-01T05:27:41.523Z,1230.00
2023-04-01T05:28:41.522Z,1227.00
2023-04-01T05:29:41.558Z,1226.00
2023-04-01T05:30:41.656Z,1223.00
2023-04-01T05:31:41.637Z,1220.00
2023-04-01T05:32:41.694Z,1220.00
2023-04-01T05:33:41.722Z,1220.00
2023-04-01T05:34:41.742Z,1216.00
2023-04-01T05:35:41.816Z,1217.00
2023-04-01T05:36:41.817Z,1216.00
2023-04-01T05:37:41.864Z,1220.00
2023-04-01T05:38:41.876Z,1215.00
2023-04-01T05:39:41.922Z,1221.00
2023-04-01T05:40:41.925Z,1219.00
2023-04-01T05:41:41.971Z,1217.00
2023-04-01T05:42:42.003Z,1218.00
2023-04-01T05:43:42.036Z,1216.00
2023-04-01T05:44:42.130Z,1216.00
2023-04-01T05:45:42.114Z,1216.00
2023-04-01T05:46:42.173Z,1217.00
2023-04-01T05:47:42.224Z,1213.00
2023-04-01T05:48:42.223Z,1212.00
2023-04-01T05:49:42.272Z,1216.00
2023-04-01T05:50:42.366Z,1210.00
2023-04-01T05:51:42.357Z,1210.00
2023-04-01T05:52:42.383Z,1207.00
2023-04-01T05:53:42.435Z,1203.00
2023-04-01T05:54:42.478Z,1204.00
2023-04-01T05:55:42.512Z,1206.00
2023-04-01T05:56:42.535Z,1211.00
2023-04-01T05:57:42.689Z,1210.00
2023-04-01T05:58:42.616Z,1212.00
2023-04-01T05:59:42.662Z,1211.00
2023-04-01T06:00:42.735Z,1214.00
2023-04-01T06:01:42.741Z,1214.00
2023-04-01T06:02:42.922Z,1215.00
2023-04-01T06:03:43.078Z,1211.00
2023-04-01T06:04:42.902Z,1206.00
2023-04-01T06:05:42.885Z,1206.00
2023-04-01T06:06:42.943Z,1206.00
2023-04-01T06:07:42.999Z,1208.00
2023-04-01T06:08:43.987Z,1200.00
2023-04-01T06:09:42.969Z,1203.00
2023-04-01T06:10:42.946Z,1206.00
2023-04-01T06:11:42.935Z,1204.00
2023-04-01T06:12:42.924Z,1203.00
2023-04-01T06:13:42.908Z,1202.00
2023-04-01T06:14:42.914Z,1200.00
2023-04-01T06:15:42.882Z,1198.00
2023-04-01T06:16:42.924Z,1202.00
2023-04-01T06:17:44.940Z,1204.00
2023-04-01T06:18:42.842Z,1205.00
2023-04-01T06:19:42.844Z,1203.00
2023-04-01T06:20:42.829Z,1200.00
2023-04-01T06:21:42.817Z,1196.00
2023-04-01T06:22:42.849Z,1200.00
2023-04-01T06:23:42.825Z,1200.00
2023-04-01T06:24:42.799Z,1201.00
2023-04-01T06:25:42.796Z,1195.00
2023-04-01T06:26:42.781Z,1187.00
2023-04-01T06:27:42.780Z,1184.00
2023-04-01T06:28:42.764Z,1188.00
2023-04-01T06:29:42.754Z,1189.00
2023-04-01T06:30:42.732Z,1187.00
2023-04-01T06:31:42.870Z,1188.00
2023-04-01T06:32:42.785Z,1187.00
2023-04-01T06:33:42.711Z,1188.00
2023-04-01T06:34:42.701Z,1188.00
2023-04-01T06:35:42.772Z,1181.00
2023-04-01T06:36:42.690Z,1178.00
2023-04-01T06:37:42.693Z,1179.00
2023-04-01T06:38:42.692Z,1179.00
2023-04-01T06:39:42.677Z,1179.00
2023-04-01T06:40:42.661Z,1178.00
2023-04-01T06:41:42.640Z,1177.00
2023-04-01T06:42:42.643Z,1177.00
2023-04-01T06:43:42.636Z,1175.00
2023-04-01T06:44:42.627Z,1176.00
2023-04-01T06:45:42.713Z,1172.00
2023-04-01T06:46:42.625Z,1172.00
2023-04-01T06:47:45.340Z,1170.00
2023-04-01T06:48:42.599Z,1170.00
2023-04-01T06:49:42.593Z,1171.00
2023-04-01T06:50:42.590Z,1173.00
2023-04-01T06:51:42.575Z,1177.00
2023-04-01T06:52:42.568Z,1177.00
2023-04-01T06:53:42.559Z,1172.00
2023-04-01T06:54:42.546Z,1173.00
2023-04-01T06:55:42.528Z,1174.00
2023-04-01T06:56:42.517Z,1176.00
2023-04-01T06:57:42.516Z,1179.00
2023-04-01T06:58:43.038Z,1172.00
2023-04-01T06:59:42.493Z,1170.00
2023-04-01T07:00:42.488Z,1166.00
2023-04-01T07:01:42.758Z,1168.00
2023-04-01T07:02:42.481Z,1167.00
2023-04-01T07:03:42.595Z,1168.00
2023-04-01T07:04:42.469Z,1166.00
2023-04-01T07:05:42.455Z,1167.00
2023-04-01T07:06:42.438Z,1164.00
2023-04-01T07:07:42.444Z,1164.00
2023-04-01T07:08:42.426Z,1164.00
2023-04-01T07:09:42.419Z,1150.00
2023-04-01T07:10:42.482Z,1157.00
2023-04-01T07:11:42.394Z,1159.00
2023-04-01T07:12:42.381Z,1159.00
2023-04-01T07:13:42.369Z,1159.00
2023-04-01T07:14:43.046Z,1163.00
2023-04-01T07:15:42.338Z,1165.00
2023-04-01T07:16:42.356Z,1167.00
2023-04-01T07:17:42.341Z,1175.00
2023-04-01T07:18:42.309Z,1176.00
2023-04-01T07:19:42.318Z,1172.00
2023-04-01T07:20:42.265Z,1170.00
2023-04-01T07:21:42.430Z,1166.00
2023-04-01T07:22:42.247Z,1166.00
2023-04-01T07:23:42.236Z,1169.00
2023-04-01T07:24:42.203Z,1167.00
2023-04-01T07:25:42.226Z,1166.00
2023-04-01T07:26:42.180Z,1166.00
2023-04-01T07:27:42.174Z,1167.00
2023-04-01T07:28:42.173Z,1162.00
2023-04-01T07:29:42.154Z,1160.00
2023-04-01T07:30:42.151Z,1161.00
2023-04-01T07:31:42.131Z,1163.00
2023-04-01T07:32:42.147Z,1165.00
2023-04-01T07:33:42.106Z,1164.00
2023-04-01T07:34:42.098Z,1161.00
2023-04-01T07:35:42.112Z,1156.00
2023-04-01T07:36:42.145Z,1152.00
2023-04-01T07:37:42.193Z,1149.00
2023-04-01T07:38:42.276Z,1150.00
2023-04-01T07:39:42.233Z,1148.00
2023-04-01T07:40:42.263Z,1146.00
2023-04-01T07:41:42.288Z,1142.00
2023-04-01T07:42:42.344Z,1141.00
2023-04-01T07:43:42.407Z,1142.00
2023-04-01T07:44:42.416Z,1137.00
2023-04-01T07:45:42.434Z,1139.00
2023-04-01T07:46:42.541Z,1142.00
2023-04-01T07:47:42.545Z,1146.00
2023-04-01T07:48:42.544Z,1144.00
2023-04-01T07:49:42.567Z,1143.00
2023-04-01T07:50:42.614Z,1142.00
2023-04-01T07:51:42.655Z,1142.00
2023-04-01T07:52:42.694Z,1141.00
2023-04-01T07:53:42.744Z,1143.00
2023-04-01T07:54:42.770Z,1144.00
2023-04-01T07:55:42.787Z,1145.00
2023-04-01T07:56:42.883Z,1145.00
2023-04-01T07:57:42.967Z,1145.00
2023-04-01T07:58:42.910Z,1147.00
2023-04-01T07:59:42.936Z,1142.00
2023-04-01T08:00:43.053Z,1139.00
2023-04-01T08:01:43.000Z,1138.00
2023-04-01T08:02:43.100Z,1140.00
2023-04-01T08:03:43.158Z,1140.00
2023-04-01T08:04:43.176Z,1141.00
2023-04-01T08:05:45.181Z,1141.00
2023-04-01T08:06:43.204Z,1140.00
2023-04-01T08:07:43.223Z,1140.00
2023-04-01T08:08:43.341Z,1139.00
2023-04-01T08:09:43.277Z,1139.00
2023-04-01T08:10:43.297Z,1138.00
2023-04-01T08:11:43.881Z,1136.00
2023-04-01T08:12:43.344Z,1137.00
2023-04-01T08:13:43.378Z,1135.00
2023-04-01T08:14:43.400Z,1138.00
2023-04-01T08:15:43.420Z,1139.00
2023-04-01T08:16:43.507Z,1138.00
2023-04-01T08:17:43.494Z,1134.00
2023-04-01T08:18:43.499Z,1133.00
2023-04-01T08:19:43.537Z,1131.00
2023-04-01T08:20:43.551Z,1130.00
2023-04-01T08:21:43.579Z,1133.00
2023-04-01T08:22:43.612Z,1134.00
2023-04-01T08:23:44.556Z,1137.00
2023-04-01T08:24:47.505Z,1138.00
2023-04-01T08:25:43.668Z,1134.00
2023-04-01T08:26:43.640Z,1125.00
2023-04-01T08:27:43.632Z,1129.00
2023-04-01T08:28:43.632Z,1128.00
2023-04-01T08:29:43.623Z,1127.00
2023-04-01T08:30:43.612Z,1123.00
2023-04-01T08:31:43.606Z,1121.00
2023-04-01T08:32:43.586Z,1119.00
2023-04-01T08:33:43.568Z,1118.00
2023-04-01T08:34:43.563Z,1116.00
2023-04-01T08:35:43.769Z,1114.00
2023-04-01T08:36:43.545Z,1113.00
2023-04-01T08:37:43.523Z,1114.00
2023-04-01T08:38:43.519Z,1116.00
2023-04-01T08:39:43.519Z,1119.00
2023-04-01T08:40:43.498Z,1121.00
2023-04-01T08:41:43.492Z,1127.00
2023-04-01T08:42:43.481Z,1128.00
2023-04-01T08:43:43.477Z,1128.00
2023-04-01T08:44:43.480Z,1132.00
2023-04-01T08:45:43.511Z,1131.00
2023-04-01T08:46:43.446Z,1124.00
2023-04-01T08:47:43.483Z,1121.00
2023-04-01T08:48:43.421Z,1116.00
2023-04-01T08:49:43.416Z,1117.00
2023-04-01T08:50:43.420Z,1114.00
2023-04-01T08:51:43.405Z,1112.00
2023-04-01T08:52:43.385Z,1114.00
2023-04-01T08:53:44.066Z,1118.00
2023-04-01T08:54:43.377Z,1119.00
2023-04-01T08:55:43.362Z,1116.00
2023-04-01T08:56:43.353Z,1111.00
2023-04-01T08:57:43.384Z,1112.00
2023-04-01T08:58:43.396Z,1115.00
2023-04-01T08:59:43.419Z,1120.00
2023-04-01T09:00:43.425Z,1120.00
2023-04-01T09:01:43.436Z,1121.00
2023-04-01T09:02:43.531Z,1119.00
2023-04-01T09:03:43.567Z,1117.00
2023-04-01T09:04:43.498Z,1119.00
2023-04-01T09:05:43.538Z,1119.00
2023-04-01T09:06:43.509Z,1121.00
2023-04-01T09:07:43.532Z,1111.00
2023-04-01T09:08:43.545Z,1125.00
2023-04-01T09:09:43.572Z,1124.00
2023-04-01T09:10:43.599Z,1123.00
2023-04-01T09:11:43.660Z,1124.00
2023-04-01T09:12:43.624Z,1123.00
2023-04-01T09:13:43.650Z,1122.00
2023-04-01T09:14:43.782Z,1116.00
2023-04-01T09:15:43.722Z,1115.00
2023-04-01T09:16:43.717Z,1113.00
2023-04-01T09:17:43.782Z,1109.00
2023-04-01T09:18:43.758Z,1109.00
2023-04-01T09:19:43.786Z,1110.00
2023-04-01T09:20:43.802Z,1108.00
2023-04-01T09:21:43.840Z,1112.00
2023-04-01T09:22:43.951Z,1112.00
2023-04-01T09:23:43.879Z,1108.00
2023-04-01T09:24:43.886Z,1110.00
2023-04-01T09:25:43.895Z,1106.00
2023-04-01T09:26:43.959Z,1101.00
2023-04-01T09:27:43.983Z,1099.00
2023-04-01T09:28:43.962Z,1099.00
2023-04-01T09:29:43.972Z,1099.00
2023-04-01T09:30:43.986Z,1098.00
2023-04-01T09:31:44.143Z,1099.00
2023-04-01T09:32:44.032Z,1097.00
2023-04-01T09:33:44.046Z,1092.00
2023-04-01T09:34:44.119Z,1094.00
2023-04-01T09:35:44.122Z,1096.00
2023-04-01T09:36:44.105Z,1096.00
2023-04-01T09:37:44.120Z,1097.00
2023-04-01T09:38:44.139Z,1098.00
2023-04-01T09:39:44.171Z,1097.00
2023-04-01T09:40:44.176Z,1097.00
2023-04-01T09:41:44.180Z,1095.00
2023-04-01T09:42:44.172Z,1098.00
2023-04-01T09:43:44.189Z,1097.00
2023-04-01T09:44:44.208Z,1095.00
2023-04-01T09:45:44.230Z,1093.00
2023-04-01T09:47:44.293Z,1091.00
2023-04-01T09:48:44.246Z,1091.00
2023-04-01T09:49:44.337Z,1093.00
2023-04-01T09:50:44.270Z,1092.00
2023-04-01T09:51:44.282Z,1090.00
2023-04-01T09:52:46.441Z,1088.00
2023-04-01T09:53:44.308Z,1088.00
2023-04-01T09:54:44.328Z,1087.00
2023-04-01T09:55:44.341Z,1089.00
2023-04-01T09:56:44.335Z,1085.00
2023-04-01T09:57:44.351Z,1085.00
2023-04-01T09:58:44.514Z,1085.00
2023-04-01T09:59:44.379Z,1083.00
2023-04-01T10:00:44.376Z,1082.00
2023-04-01T10:02:44.446Z,1084.00
2023-04-01T10:03:44.410Z,1084.00
2023-04-01T10:04:44.431Z,1084.00
2023-04-01T10:05:44.470Z,1083.00
2023-04-01T10:06:44.457Z,1081.00
2023-04-01T10:07:44.457Z,1084.00
2023-04-01T10:08:44.461Z,1085.00
2023-04-01T10:09:44.470Z,1077.00
2023-04-01T10:10:44.481Z,1079.00
2023-04-01T10:11:44.487Z,1080.00
2023-04-01T10:12:44.506Z,1080.00
2023-04-01T10:13:44.511Z,1077.00
2023-04-01T10:14:44.534Z,1072.00
2023-04-01T10:15:44.551Z,1069.00
2023-04-01T10:16:44.601Z,1071.00
2023-04-01T10:17:44.584Z,1072.00
2023-04-01T10:18:44.562Z,1075.00
2023-04-01T10:19:44.609Z,1074.00
2023-04-01T10:20:44.568Z,1079.00
2023-04-01T10:21:44.576Z,1078.00
2023-04-01T10:22:45.215Z,1077.00
2023-04-01T10:23:44.582Z,1080.00
2023-04-01T10:24:44.586Z,1076.00
2023-04-01T10:25:44.610Z,1069.00
2023-04-01T10:26:44.605Z,1071.00
2023-04-01T10:27:44.608Z,1073.00
2023-04-01T10:28:44.625Z,1074.00
2023-04-01T10:29:44.630Z,1071.00
2023-04-01T10:30:44.636Z,1073.00
2023-04-01T10:31:44.638Z,1072.00
2023-04-01T10:32:44.805Z,1068.00
2023-04-01T10:33:44.649Z,1068.00
2023-04-01T10:34:44.654Z,1070.00
2023-04-01T10:35:44.679Z,1071.00
2023-04-01T10:36:44.656Z,1065.00
2023-04-01T10:37:44.650Z,1065.00
2023-04-01T10:38:44.662Z,1064.00
2023-04-01T10:39:44.656Z,1064.00
2023-04-01T10:40:44.665Z,1065.00
2023-04-01T10:41:44.662Z,1063.00
2023-04-01T10:42:44.670Z,1059.00
2023-04-01T10:43:44.686Z,1056.00
2023-04-01T10:44:44.674Z,1057.00
2023-04-01T10:45:44.690Z,1060.00
2023-04-01T10:46:44.686Z,1061.00
2023-04-01T10:47:44.684Z,1059.00
2023-04-01T10:48:44.663Z,1059.00
2023-04-01T10:49:44.676Z,1057.00
2023-04-01T10:50:44.674Z,1058.00
2023-04-01T10:51:44.654Z,1056.00
2023-04-01T10:52:44.652Z,1053.00
2023-04-01T10:53:44.655Z,1055.00
2023-04-01T10:54:44.658Z,1057.00
2023-04-01T10:55:44.666Z,1054.00
2023-04-01T10:56:44.677Z,1054.00
2023-04-01T10:57:44.676Z,1055.00
2023-04-01T10:58:44.666Z,1056.00
2023-04-01T10:59:44.664Z,1054.00
2023-04-01T11:00:44.676Z,1053.00
2023-04-01T11:01:44.846Z,1051.00
2023-04-01T11:02:44.747Z,1051.00
2023-04-01T11:03:44.724Z,1055.00
2023-04-01T11:04:44.685Z,1055.00
2023-04-01T11:05:44.682Z,1053.00
2023-04-01T11:06:44.691Z,1054.00
2023-04-01T11:07:48.255Z,1055.00
2023-04-01T11:08:45.658Z,1050.00
2023-04-01T11:09:44.642Z,1049.00
2023-04-01T11:10:44.617Z,1047.00
2023-04-01T11:11:44.635Z,1044.00
2023-04-01T11:12:44.599Z,1043.00
2023-04-01T11:13:44.584Z,1041.00
2023-04-01T11:14:44.569Z,1040.00
2023-04-01T11:15:44.592Z,1039.00
2023-04-01T11:16:44.540Z,1038.00
2023-04-01T11:17:44.577Z,1037.00
2023-04-01T11:18:44.524Z,1040.00
2023-04-01T11:19:44.510Z,1045.00
2023-04-01T11:20:44.510Z,1038.00
2023-04-01T11:21:44.491Z,1039.00
2023-04-01T11:22:44.475Z,1040.00
2023-04-01T11:23:49.392Z,1043.00
2023-04-01T11:24:45.439Z,1042.00
2023-04-01T11:25:44.431Z,1039.00
2023-04-01T11:26:44.441Z,1037.00
2023-04-01T11:27:44.405Z,1041.00
2023-04-01T11:28:44.366Z,1040.00
2023-04-01T11:29:56.674Z,1041.00
2023-04-01T11:30:45.341Z,1041.00
2023-04-01T11:31:44.347Z,1037.00
2023-04-01T11:32:44.408Z,1036.00
2023-04-01T11:33:44.318Z,1035.00
2023-04-01T11:34:44.263Z,1031.00
2023-04-01T11:35:44.248Z,1028.00
2023-04-01T11:36:44.282Z,1028.00
2023-04-01T11:37:44.213Z,1025.00
2023-04-01T11:38:44.203Z,1024.00
2023-04-01T11:39:44.190Z,1025.00
2023-04-01T11:40:44.191Z,1025.00
2023-04-01T11:41:44.157Z,1027.00
2023-04-01T11:42:44.153Z,1031.00
2023-04-01T11:43:44.135Z,1029.00
2023-04-01T11:44:44.127Z,1027.00
2023-04-01T11:45:44.121Z,1021.00
2023-04-01T11:46:44.129Z,1016.00
2023-04-01T11:47:44.145Z,1016.00
2023-04-01T11:48:45.543Z,1018.00
2023-04-01T11:49:44.058Z,1020.00
2023-04-01T11:50:44.054Z,1019.00
2023-04-01T11:51:44.163Z,1015.00
2023-04-01T11:52:44.032Z,1013.00
2023-04-01T11:53:44.004Z,1011.00
2023-04-01T11:54:43.994Z,1011.00
2023-04-01T11:55:43.984Z,1016.00
2023-04-01T11:56:43.965Z,1016.00
2023-04-01T11:57:43.952Z,1017.00
2023-04-01T11:58:43.953Z,1014.00
2023-04-01T11:59:43.914Z,1013.00
2023-04-01T12:00:43.935Z,1013.00
2023-04-01T12:01:43.925Z,1013.00
2023-04-01T12:02:44.051Z,1008.00
2023-04-01T12:03:44.126Z,1010.00
2023-04-01T12:04:44.010Z,1006.00
2023-04-01T12:05:43.932Z,1008.00
2023-04-01T12:06:43.927Z,1010.00
2023-04-01T12:07:45.354Z,1009.00